Flight Track Log - Related Links

Times and Time Zones

All times are in EST time to prevent confusion due to time zone crossing. See the N960DL flight status page for this flight to view local times or setup timezone preferences in your user account.

Time Position Orientation Groundspeed Altitude Reporting Facility
EST Latitude Longitude Course Direction KTS MPH feet Rate Location/Type
Tue 02:57:58 PM 33.6500 -84.3833 252° West 180 207 2,300  Level Atlanta TRACON
Tue 02:58:58 PM 33.6833 -84.3000 64° Northeast 276 318 4,000 2,368 Climbing Atlanta TRACON
Tue 02:59:52 PM 33.7500 -84.2833 12° North 286 329 6,800 2,645 Climbing Atlanta TRACON
Tue 03:00:00 PM 33.8000 -84.5373 270° West  Level FlightAware Approximate
Tue 03:01:00 PM 33.7862 -84.6667 252° West  Level FlightAware Approximate
Tue 03:01:30 PM 33.8125 -84.3839 307° West 274 315 10,700  Level Atlanta Center
Tue 03:02:00 PM 33.7517 -84.7920 252° West  Level FlightAware Approximate
Tue 03:02:30 PM 33.8081 -84.4864 267° West 261 300 12,200  Level Atlanta Center
Tue 03:03:00 PM 33.7170 -84.9172 252° West  Level FlightAware Approximate
Tue 03:03:30 PM 33.8014 -84.6064 266° West 334 384 14,100  Level Atlanta Center
Tue 03:04:30 PM 33.7756 -84.7261 255° West 363 418 16,600 2,100 Climbing Atlanta Center
Tue 03:05:30 PM 33.7522 -84.8208 254° West 375 432 18,300 1,900 Climbing Atlanta Center
Tue 03:06:30 PM 33.7156 -84.9678 253° West 403 464 20,400 1,950 Climbing Atlanta Center
Tue 03:07:30 PM 33.6853 -85.0972 254° West 408 470 22,200 2,100 Climbing Atlanta Center
Tue 03:08:30 PM 33.6528 -85.2317 254° West 414 476 24,600 2,300 Climbing Atlanta Center
Tue 03:09:30 PM 33.6536 -85.3614 270° West 408 470 26,800 1,700 Climbing Atlanta Center
Tue 03:10:30 PM 33.6583 -85.5014 272° West 397 457 28,000 600 Climbing Atlanta Center
Tue 03:11:30 PM 33.6608 -85.6261 271° West 386 444 28,000  Level Atlanta Center
Tue 03:12:30 PM 33.6656 -85.7536 273° West 381 438 28,000  Level Atlanta Center
Tue 03:13:30 PM 33.6619 -85.8583 268° West 377 434 28,000  Level Atlanta Center
Tue 03:14:30 PM 33.6619 -85.9881 270° West 372 428 28,000  Level Atlanta Center
Tue 03:15:30 PM 33.6642 -86.1128 271° West 378 435 28,000  Level Atlanta Center
Tue 03:16:30 PM 33.6639 -86.2403 270° West 384 442 28,000  Level Atlanta Center
Tue 03:17:30 PM 33.6658 -86.3650 271° West 384 442 28,000  Level Atlanta Center
Tue 03:18:30 PM 33.6675 -86.4925 271° West 384 442 28,000  Level Atlanta Center
Tue 03:19:30 PM 33.6669 -86.6197 270° West 384 442 28,000  Level Atlanta Center
Tue 03:20:30 PM 33.6664 -86.7444 270° West 384 442 28,000  Level Atlanta Center
Tue 03:22:18 PM 33.6969 -86.9644 280° West 379 436 28,000  Level Memphis Center
Tue 03:23:20 PM 33.7506 -87.0725 301° West 378 435 28,000  Level Memphis Center
Tue 03:24:22 PM 33.8033 -87.1814 300° West 377 434 28,000  Level Memphis Center
Tue 03:25:24 PM 33.8658 -87.3139 300° West 379 436 28,000  Level Memphis Center
Tue 03:26:26 PM 33.9186 -87.4258 300° West 381 438 28,000  Level Memphis Center
Tue 03:27:28 PM 33.9703 -87.5367 299° West 380 437 28,000  Level Memphis Center
Tue 03:28:30 PM 34.0250 -87.6478 301° West 382 440 28,000  Level Memphis Center
Tue 03:29:32 PM 34.0794 -87.7622 300° West 383 441 28,000  Level Memphis Center
Tue 03:30:34 PM 34.1308 -87.8717 300° West 381 438 28,000  Level Memphis Center
Tue 03:31:36 PM 34.1839 -87.9822 300° West 379 436 28,000 -240 Level Memphis Center
Tue 03:32:39 PM 34.2483 -88.1139 301° West 378 435 27,500 -528 Descending Memphis Center
Tue 03:33:41 PM 34.3025 -88.2214 301° West 376 433 26,900 -677 Descending Memphis Center
Tue 03:34:43 PM 34.3547 -88.3300 300° West 374 430 26,100 -726 Descending Memphis Center
Tue 03:35:45 PM 34.4058 -88.4331 301° West 362 417 25,400 -1,403 Descending Memphis Center
Tue 03:36:47 PM 34.4539 -88.5336 300° West 350 403 23,200 -1,790 Descending Memphis Center
Tue 03:37:49 PM 34.5028 -88.6317 301° West 343 395 21,700 -1,645 Descending Memphis Center
Tue 03:38:51 PM 34.5606 -88.7489 301° West 339 390 19,800 -1,548 Descending Memphis Center
Tue 03:39:53 PM 34.6083 -88.8469 301° West 334 384 18,500 -1,452 Descending Memphis Center
Tue 03:40:55 PM 34.6475 -88.9475 295° West 328 377 16,800 -1,355 Descending Memphis Center
Tue 03:41:57 PM 34.6686 -89.0553 283° West 325 374 15,700 -774 Descending Memphis Center
Tue 03:42:59 PM 34.6928 -89.1631 285° West 327 376 15,200 -339 Descending Memphis Center
Tue 03:44:01 PM 34.7175 -89.2711 286° West 329 379 15,000 -672 Descending Memphis Center
Tue 03:45:04 PM 34.7419 -89.3789 285° West 329 379 13,800 -1,056 Descending Memphis Center
Tue 03:46:06 PM 34.7661 -89.4853 285° West 325 374 12,800 -1,016 Descending Memphis Center
Tue 03:47:08 PM 34.8175 -89.5947 300° West 318 366 11,700 -1,113 Descending Memphis Center
Tue 03:48:10 PM 34.8589 -89.6767 302° West 296 341 10,500 -1,016 Descending Memphis Center
Tue 03:49:12 PM 34.8961 -89.7478 303° West 265 305 9,600 -726 Descending Memphis Center
Tue 03:50:14 PM 34.9294 -89.8128 302° West 237 273 9,000 -677 Descending Memphis Center
Tue 03:51:16 PM 34.9747 -89.8819 309° West 237 273 8,200 -968 Descending Memphis Center
Tue 03:52:18 PM 35.0458 -89.8825 360° North 250 288 7,000 -1,219 Descending Memphis Center
Tue 03:53:24 PM 35.1167 -89.8833 359° North 245 282 5,600 -1,286 Descending KMEM
Tue 03:54:24 PM 35.1833 -89.8833 360° North 239 275 4,300 -1,300 Descending KMEM
Tue 03:55:24 PM 35.2500 -89.9000 348° North 225 259 3,000 -650 Descending KMEM
Tue 03:56:24 PM 35.2500 -89.9500 270° West 167 192 3,000 -100 Level KMEM
Tue 03:57:24 PM 35.2167 -89.9833 219° Southwest 154 177 2,800 -318 Descending KMEM
Tue 03:58:36 PM 35.1500 -89.9833 180° South 164 189 2,300 -591 Descending KMEM
Tue 03:59:36 PM 35.1167 -89.9667 158° South 157 181 1,500 -750 Descending KMEM
Tue 04:00:36 PM 35.0833 -89.9667 180° South 133 153 800 -700 Descending KMEM

Login

Don't have an account? Register now (free) for customized features, flight alerts, and more!